Hauptseite
METAR-TAF:

METAR-TAF

Flughäfen :

Amman, Jordanien

Flughafen Marka International

Breite: 31-59N, Länge: 035-59E, Höhe: 767 m

Beobachtung

Neuester Wetterbericht von vor 11 Minuten, um 09:00 UTC
Wind 12 kt aus West
Temperatur 29°C
Luftfeuchtigkeit 22%
Luftdruck 1019 hPa
Sichtweite: 5000 m
trockener Dunst

METAR: OJAM 300900Z 27012KT 5000 HZ NSC 29/05 Q1019 NOSIG

Zeit: 12:11 (09:11 UTC)

Prognose

Neuester Wetterbericht von vor 2 Stunden und 46 Minuten, um 06:25 UTC
Gültige Prognose vom 30 um 06 UTC bis 31 um 12 UTC
Wind 8 kt aus Nordwest
Sichtweite: 5000 m
trockener Dunst
Übergehend zu
vom 30 um 10 UTC bis 30 um 12 UTC
Wind 14 kt aus Nordwest
Sichtweite: 4000 m
trockener Dunst

TAF: OJAM 300625Z 3006/3112 31008KT 5000 HZ NSC BECMG 3010/3012 31014KT 4000 HZ

Wetterbeobachtungen und Prognosen von mehr als 4000 Flughäfen (METAR und TAF Bericht).

Die verfügbaren Stationen werden durch gelbe und rote Markierungen auf der Karte dargestellt.

Führen Sie die Maus auf sie, um den Namen der Station zu sehen.

Darauf klicken, um die Beobachtung von Wetterbeobachtungen und Prognosen zu sehen.

Um die Karte zu ändern : klicken Sie auf den grünen Tasten mit einem schwarzen Kreuz Zum Vergrößern, auf den grünen Button mit einem Gedankenstrich zu verkleinern, oder auf die grünen Pfeile für benachbarte Karten.


METAR-TAF: